Pagina principale
METAR-TAF:

METAR-TAF

Aeroporti :

Aeroporto di Grosseto

Grosseto, Italia

latitudine: 42-45N, longitudine: 011-04E, altezza: 5 m

Osservazione

Il bollettino è stato emesso 56 minuti fa, alle 11:55 UTC
Vento 13 kt da sud/sud-ovest
Temperature 26°C
Umidità 61%
Pressione 1025 hPa
Visibilità 10 km o più
nessuna nube inferiore a 1500 m e nessun cumulonembo

METAR: LIRS 191155Z 20013KT CAVOK 26/18 Q1025 RMK FEW FEW200 VIS MIN 9999 WIND THR03 21012KT WIND THR21 21013KT BLU

Ora: 14:51 (12:51 UTC)

Previsione

Il bollettino è stato emesso 1 ora e 51 minuti fa, alle 11:00 UTC
Previsione valida dal 19 alle 12 UTC al 19 alle 21 UTC
Vento 14 kt da sud-ovest
Visibilità 10 km o più
nessuna nube inferiore a 1500 m e nessun cumulonembo
Evoluzione graduale
dal 19 alle 17 UTC al 19 alle 19 UTC
Vento 3 kt da direzioni variabili

TAF: LIRS 191100Z 1912/1921 22014KT CAVOK BECMG 1917/1919 VRB03KT

Osservazioni e previsioni meteorologiche di più di 4000 aeroporti (messaggi METAR e TAF).

Le stazioni disponibili sono rappresentate dai dischi gialli e rossi sulla carta.

Puntare il mouse per vedere il nome della stazione.

Clicca sopra per visualizzare le osservazioni e previsioni meteorologiche.

Per cambiare la mappa : fare clic sui pulsanti verdi con una croce nera per ingrandire, il pulsante verde con un trattino per diminuire, o sulla freccia verde per le mappe adiacenti.


METAR-TAF: